sensor_id;sensor_type;location;lat;lon;timestamp;temperature;humidity
57218;DHT22;43078;52.972;6.482;2023-04-25T00:02:00;8.40;99.90
57218;DHT22;43078;52.972;6.482;2023-04-25T00:04:26;8.50;99.90
57218;DHT22;43078;52.972;6.482;2023-04-25T00:06:53;8.50;99.90
57218;DHT22;43078;52.972;6.482;2023-04-25T00:09:19;8.40;99.90
57218;DHT22;43078;52.972;6.482;2023-04-25T00:11:45;8.40;99.90
57218;DHT22;43078;52.972;6.482;2023-04-25T00:14:10;8.40;99.90
57218;DHT22;43078;52.972;6.482;2023-04-25T00:16:36;8.40;99.90
57218;DHT22;43078;52.972;6.482;2023-04-25T00:19:02;8.40;99.90
57218;DHT22;43078;52.972;6.482;2023-04-25T00:21:28;8.40;99.90
57218;DHT22;43078;52.972;6.482;2023-04-25T00:23:55;8.40;99.90
57218;DHT22;43078;52.972;6.482;2023-04-25T00:26:20;8.40;99.90
57218;DHT22;43078;52.972;6.482;2023-04-25T00:28:47;8.40;99.90
57218;DHT22;43078;52.972;6.482;2023-04-25T00:31:12;8.30;99.90
57218;DHT22;43078;52.972;6.482;2023-04-25T00:33:38;8.30;99.90
57218;DHT22;43078;52.972;6.482;2023-04-25T00:36:04;8.20;99.90
57218;DHT22;43078;52.972;6.482;2023-04-25T00:38:30;8.20;99.90
57218;DHT22;43078;52.972;6.482;2023-04-25T00:40:56;8.20;99.90
57218;DHT22;43078;52.972;6.482;2023-04-25T00:43:25;8.20;99.90
57218;DHT22;43078;52.972;6.482;2023-04-25T00:45:52;8.20;99.90
57218;DHT22;43078;52.972;6.482;2023-04-25T00:48:18;8.20;99.90
57218;DHT22;43078;52.972;6.482;2023-04-25T00:50:52;8.20;99.90
57218;DHT22;43078;52.972;6.482;2023-04-25T00:53:18;8.20;99.90
57218;DHT22;43078;52.972;6.482;2023-04-25T00:55:45;8.20;99.90
57218;DHT22;43078;52.972;6.482;2023-04-25T00:58:10;8.20;99.90
57218;DHT22;43078;52.972;6.482;2023-04-25T01:00:36;8.10;99.90
57218;DHT22;43078;52.972;6.482;2023-04-25T01:03:03;8.20;99.90
57218;DHT22;43078;52.972;6.482;2023-04-25T01:05:29;8.20;99.90
57218;DHT22;43078;52.972;6.482;2023-04-25T01:07:55;8.10;99.90
57218;DHT22;43078;52.972;6.482;2023-04-25T01:10:21;8.10;99.90
57218;DHT22;43078;52.972;6.482;2023-04-25T01:12:47;8.10;99.90
57218;DHT22;43078;52.972;6.482;2023-04-25T01:15:12;8.10;99.90
57218;DHT22;43078;52.972;6.482;2023-04-25T01:17:38;8.00;99.90
57218;DHT22;43078;52.972;6.482;2023-04-25T01:20:07;8.00;99.90
57218;DHT22;43078;52.972;6.482;2023-04-25T01:22:35;8.00;99.90
57218;DHT22;43078;52.972;6.482;2023-04-25T01:25:01;8.00;99.90
57218;DHT22;43078;52.972;6.482;2023-04-25T01:27:27;8.00;99.90
57218;DHT22;43078;52.972;6.482;2023-04-25T01:29:54;8.00;99.90
57218;DHT22;43078;52.972;6.482;2023-04-25T01:32:22;8.00;99.90
57218;DHT22;43078;52.972;6.482;2023-04-25T01:34:47;7.90;99.90
57218;DHT22;43078;52.972;6.482;2023-04-25T01:37:13;7.90;99.90
57218;DHT22;43078;52.972;6.482;2023-04-25T01:39:39;7.90;99.90
57218;DHT22;43078;52.972;6.482;2023-04-25T01:42:05;7.90;99.90
57218;DHT22;43078;52.972;6.482;2023-04-25T01:44:30;7.90;99.90
57218;DHT22;43078;52.972;6.482;2023-04-25T01:46:56;7.90;99.90
57218;DHT22;43078;52.972;6.482;2023-04-25T01:49:22;7.90;99.90
57218;DHT22;43078;52.972;6.482;2023-04-25T01:51:48;7.90;99.90
57218;DHT22;43078;52.972;6.482;2023-04-25T01:54:13;7.80;99.90
57218;DHT22;43078;52.972;6.482;2023-04-25T01:56:39;7.80;99.90
57218;DHT22;43078;52.972;6.482;2023-04-25T01:59:05;7.80;99.90
57218;DHT22;43078;52.972;6.482;2023-04-25T02:01:32;7.80;99.90
57218;DHT22;43078;52.972;6.482;2023-04-25T02:03:57;7.80;99.90
57218;DHT22;43078;52.972;6.482;2023-04-25T02:06:23;7.80;99.90
57218;DHT22;43078;52.972;6.482;2023-04-25T02:08:48;7.80;99.90
57218;DHT22;43078;52.972;6.482;2023-04-25T02:11:14;7.80;99.90
57218;DHT22;43078;52.972;6.482;2023-04-25T02:13:40;7.80;99.90
57218;DHT22;43078;52.972;6.482;2023-04-25T02:16:05;7.80;99.90
57218;DHT22;43078;52.972;6.482;2023-04-25T02:18:31;7.70;99.90
57218;DHT22;43078;52.972;6.482;2023-04-25T02:20:59;7.70;99.90
57218;DHT22;43078;52.972;6.482;2023-04-25T02:23:25;7.70;99.90
57218;DHT22;43078;52.972;6.482;2023-04-25T02:25:51;7.70;99.90
57218;DHT22;43078;52.972;6.482;2023-04-25T02:28:17;7.70;99.90
57218;DHT22;43078;52.972;6.482;2023-04-25T02:30:42;7.70;99.90
57218;DHT22;43078;52.972;6.482;2023-04-25T02:33:08;7.70;99.90
57218;DHT22;43078;52.972;6.482;2023-04-25T02:35:34;7.70;99.90
57218;DHT22;43078;52.972;6.482;2023-04-25T02:37:59;7.70;99.90
57218;DHT22;43078;52.972;6.482;2023-04-25T02:40:25;7.60;99.90
57218;DHT22;43078;52.972;6.482;2023-04-25T02:42:50;7.60;99.90
57218;DHT22;43078;52.972;6.482;2023-04-25T02:45:16;7.60;99.90
57218;DHT22;43078;52.972;6.482;2023-04-25T02:47:42;7.60;99.90
57218;DHT22;43078;52.972;6.482;2023-04-25T02:50:08;7.60;99.90
57218;DHT22;43078;52.972;6.482;2023-04-25T02:52:33;7.60;99.90
57218;DHT22;43078;52.972;6.482;2023-04-25T02:54:59;7.50;99.90
57218;DHT22;43078;52.972;6.482;2023-04-25T02:57:25;7.50;99.90
57218;DHT22;43078;52.972;6.482;2023-04-25T02:59:50;7.50;99.90
57218;DHT22;43078;52.972;6.482;2023-04-25T03:02:16;7.50;99.90
57218;DHT22;43078;52.972;6.482;2023-04-25T03:04:41;7.50;99.90
57218;DHT22;43078;52.972;6.482;2023-04-25T03:07:08;7.50;99.90
57218;DHT22;43078;52.972;6.482;2023-04-25T03:09:33;7.50;99.90
57218;DHT22;43078;52.972;6.482;2023-04-25T03:12:00;7.50;99.90
57218;DHT22;43078;52.972;6.482;2023-04-25T03:14:25;7.40;99.90
57218;DHT22;43078;52.972;6.482;2023-04-25T03:16:51;7.40;99.90
57218;DHT22;43078;52.972;6.482;2023-04-25T03:19:16;7.40;99.90
57218;DHT22;43078;52.972;6.482;2023-04-25T03:21:43;7.30;99.90
57218;DHT22;43078;52.972;6.482;2023-04-25T03:24:08;7.30;99.90
57218;DHT22;43078;52.972;6.482;2023-04-25T03:26:36;7.20;99.90
57218;DHT22;43078;52.972;6.482;2023-04-25T03:29:02;7.20;99.90
57218;DHT22;43078;52.972;6.482;2023-04-25T03:31:28;7.20;99.90
57218;DHT22;43078;52.972;6.482;2023-04-25T03:33:53;7.20;99.90
57218;DHT22;43078;52.972;6.482;2023-04-25T03:36:19;7.10;99.90
57218;DHT22;43078;52.972;6.482;2023-04-25T03:38:45;7.10;99.90
57218;DHT22;43078;52.972;6.482;2023-04-25T03:41:11;7.10;99.90
57218;DHT22;43078;52.972;6.482;2023-04-25T03:43:36;7.10;99.90
57218;DHT22;43078;52.972;6.482;2023-04-25T03:46:02;7.10;99.90
57218;DHT22;43078;52.972;6.482;2023-04-25T03:48:27;7.10;99.90
57218;DHT22;43078;52.972;6.482;2023-04-25T03:50:54;7.10;99.90
57218;DHT22;43078;52.972;6.482;2023-04-25T03:53:19;7.10;99.90
57218;DHT22;43078;52.972;6.482;2023-04-25T03:55:45;7.10;99.90
57218;DHT22;43078;52.972;6.482;2023-04-25T03:58:11;7.10;99.90
57218;DHT22;43078;52.972;6.482;2023-04-25T04:00:36;7.10;99.90
57218;DHT22;43078;52.972;6.482;2023-04-25T04:03:02;7.10;99.90
57218;DHT22;43078;52.972;6.482;2023-04-25T04:05:28;7.10;99.90
57218;DHT22;43078;52.972;6.482;2023-04-25T04:07:54;7.10;99.90
57218;DHT22;43078;52.972;6.482;2023-04-25T04:10:20;7.10;99.90
57218;DHT22;43078;52.972;6.482;2023-04-25T04:12:45;7.10;99.90
57218;DHT22;43078;52.972;6.482;2023-04-25T04:15:11;7.10;99.90
57218;DHT22;43078;52.972;6.482;2023-04-25T04:17:37;7.10;99.90
57218;DHT22;43078;52.972;6.482;2023-04-25T04:20:03;7.00;99.90
57218;DHT22;43078;52.972;6.482;2023-04-25T04:22:29;7.00;99.90
57218;DHT22;43078;52.972;6.482;2023-04-25T04:24:55;7.00;99.90
57218;DHT22;43078;52.972;6.482;2023-04-25T04:27:22;7.00;99.90
57218;DHT22;43078;52.972;6.482;2023-04-25T04:29:48;7.00;99.90
57218;DHT22;43078;52.972;6.482;2023-04-25T04:32:16;7.00;99.90
57218;DHT22;43078;52.972;6.482;2023-04-25T04:34:42;6.90;99.90
57218;DHT22;43078;52.972;6.482;2023-04-25T04:37:08;6.90;99.90
57218;DHT22;43078;52.972;6.482;2023-04-25T04:39:35;6.80;99.90
57218;DHT22;43078;52.972;6.482;2023-04-25T04:42:01;6.80;99.90
57218;DHT22;43078;52.972;6.482;2023-04-25T04:44:30;6.80;99.90
57218;DHT22;43078;52.972;6.482;2023-04-25T04:46:59;6.80;99.90
57218;DHT22;43078;52.972;6.482;2023-04-25T04:49:25;6.80;99.90
57218;DHT22;43078;52.972;6.482;2023-04-25T04:51:51;6.80;99.90
57218;DHT22;43078;52.972;6.482;2023-04-25T04:54:17;6.80;99.90
57218;DHT22;43078;52.972;6.482;2023-04-25T04:56:43;6.80;99.90
57218;DHT22;43078;52.972;6.482;2023-04-25T04:59:09;6.80;99.90
57218;DHT22;43078;52.972;6.482;2023-04-25T05:01:34;6.80;99.90
57218;DHT22;43078;52.972;6.482;2023-04-25T05:04:03;6.80;99.90
57218;DHT22;43078;52.972;6.482;2023-04-25T05:06:29;6.80;99.90
57218;DHT22;43078;52.972;6.482;2023-04-25T05:08:55;6.80;99.90
57218;DHT22;43078;52.972;6.482;2023-04-25T05:11:22;6.80;99.90
57218;DHT22;43078;52.972;6.482;2023-04-25T05:13:49;6.80;99.90
57218;DHT22;43078;52.972;6.482;2023-04-25T05:16:14;6.80;99.90
57218;DHT22;43078;52.972;6.482;2023-04-25T05:18:40;6.80;99.90
57218;DHT22;43078;52.972;6.482;2023-04-25T05:21:06;6.80;99.90
57218;DHT22;43078;52.972;6.482;2023-04-25T05:23:32;6.80;99.90
57218;DHT22;43078;52.972;6.482;2023-04-25T05:25:58;6.80;99.90
57218;DHT22;43078;52.972;6.482;2023-04-25T05:28:24;6.80;99.90
57218;DHT22;43078;52.972;6.482;2023-04-25T05:30:50;6.70;99.90
57218;DHT22;43078;52.972;6.482;2023-04-25T05:33:16;6.70;99.90
57218;DHT22;43078;52.972;6.482;2023-04-25T05:35:42;6.70;99.90
57218;DHT22;43078;52.972;6.482;2023-04-25T05:38:07;6.70;99.90
57218;DHT22;43078;52.972;6.482;2023-04-25T05:40:33;6.70;99.90
57218;DHT22;43078;52.972;6.482;2023-04-25T05:42:59;6.70;99.90
57218;DHT22;43078;52.972;6.482;2023-04-25T05:45:24;6.70;99.90
57218;DHT22;43078;52.972;6.482;2023-04-25T05:47:50;6.70;99.90
57218;DHT22;43078;52.972;6.482;2023-04-25T05:50:16;6.70;99.90
57218;DHT22;43078;52.972;6.482;2023-04-25T05:52:41;6.70;99.90
57218;DHT22;43078;52.972;6.482;2023-04-25T05:55:07;6.70;99.90
57218;DHT22;43078;52.972;6.482;2023-04-25T05:57:33;6.70;99.90
57218;DHT22;43078;52.972;6.482;2023-04-25T05:59:59;6.70;99.90
57218;DHT22;43078;52.972;6.482;2023-04-25T06:02:24;6.70;99.90
57218;DHT22;43078;52.972;6.482;2023-04-25T06:04:51;6.70;99.90
57218;DHT22;43078;52.972;6.482;2023-04-25T06:07:17;6.70;99.90
57218;DHT22;43078;52.972;6.482;2023-04-25T06:09:43;6.70;99.90
57218;DHT22;43078;52.972;6.482;2023-04-25T06:12:09;6.80;99.90
57218;DHT22;43078;52.972;6.482;2023-04-25T06:14:35;6.80;99.90
57218;DHT22;43078;52.972;6.482;2023-04-25T06:17:02;6.80;99.90
57218;DHT22;43078;52.972;6.482;2023-04-25T06:19:35;6.80;99.90
57218;DHT22;43078;52.972;6.482;2023-04-25T06:22:01;6.90;99.90
57218;DHT22;43078;52.972;6.482;2023-04-25T06:24:27;6.90;99.90
57218;DHT22;43078;52.972;6.482;2023-04-25T06:26:53;6.90;99.90
57218;DHT22;43078;52.972;6.482;2023-04-25T06:29:19;7.00;99.90
57218;DHT22;43078;52.972;6.482;2023-04-25T06:31:45;7.00;99.90
57218;DHT22;43078;52.972;6.482;2023-04-25T06:34:10;7.10;99.90
57218;DHT22;43078;52.972;6.482;2023-04-25T06:36:36;7.10;99.90
57218;DHT22;43078;52.972;6.482;2023-04-25T06:39:01;7.20;99.90
57218;DHT22;43078;52.972;6.482;2023-04-25T06:41:27;7.20;99.90
57218;DHT22;43078;52.972;6.482;2023-04-25T06:43:53;7.20;99.90
57218;DHT22;43078;52.972;6.482;2023-04-25T06:46:19;7.20;99.90
57218;DHT22;43078;52.972;6.482;2023-04-25T06:48:44;7.20;99.90
57218;DHT22;43078;52.972;6.482;2023-04-25T06:51:10;7.30;99.90
57218;DHT22;43078;52.972;6.482;2023-04-25T06:53:36;7.30;99.90
57218;DHT22;43078;52.972;6.482;2023-04-25T06:56:01;7.30;99.90
57218;DHT22;43078;52.972;6.482;2023-04-25T06:58:28;7.30;99.90
57218;DHT22;43078;52.972;6.482;2023-04-25T07:00:54;7.40;99.90
57218;DHT22;43078;52.972;6.482;2023-04-25T07:03:20;7.40;99.90
57218;DHT22;43078;52.972;6.482;2023-04-25T07:05:46;7.50;99.90
57218;DHT22;43078;52.972;6.482;2023-04-25T07:08:12;7.50;99.90
57218;DHT22;43078;52.972;6.482;2023-04-25T07:10:38;7.60;99.90
57218;DHT22;43078;52.972;6.482;2023-04-25T07:13:04;7.60;99.90
57218;DHT22;43078;52.972;6.482;2023-04-25T07:15:29;7.70;99.90
57218;DHT22;43078;52.972;6.482;2023-04-25T07:17:55;7.70;99.90
57218;DHT22;43078;52.972;6.482;2023-04-25T07:20:20;7.70;99.90
57218;DHT22;43078;52.972;6.482;2023-04-25T07:22:46;7.80;99.90
57218;DHT22;43078;52.972;6.482;2023-04-25T07:25:12;7.80;99.90
57218;DHT22;43078;52.972;6.482;2023-04-25T07:27:37;7.80;99.90
57218;DHT22;43078;52.972;6.482;2023-04-25T07:30:04;7.90;99.90
57218;DHT22;43078;52.972;6.482;2023-04-25T07:32:30;7.90;99.90
57218;DHT22;43078;52.972;6.482;2023-04-25T07:34:55;7.90;99.90
57218;DHT22;43078;52.972;6.482;2023-04-25T07:37:21;7.90;99.90
57218;DHT22;43078;52.972;6.482;2023-04-25T07:39:47;8.00;99.90
57218;DHT22;43078;52.972;6.482;2023-04-25T07:42:13;8.00;99.90
57218;DHT22;43078;52.972;6.482;2023-04-25T07:44:38;8.10;99.90
57218;DHT22;43078;52.972;6.482;2023-04-25T07:47:09;8.10;99.90
57218;DHT22;43078;52.972;6.482;2023-04-25T07:49:37;8.20;99.90
57218;DHT22;43078;52.972;6.482;2023-04-25T07:52:04;8.20;99.90
57218;DHT22;43078;52.972;6.482;2023-04-25T07:54:31;8.30;99.90
57218;DHT22;43078;52.972;6.482;2023-04-25T07:56:58;8.30;99.90
57218;DHT22;43078;52.972;6.482;2023-04-25T07:59:23;8.20;99.90
57218;DHT22;43078;52.972;6.482;2023-04-25T08:01:49;8.20;99.90
57218;DHT22;43078;52.972;6.482;2023-04-25T08:04:16;8.20;99.90
57218;DHT22;43078;52.972;6.482;2023-04-25T08:06:42;8.20;99.90
57218;DHT22;43078;52.972;6.482;2023-04-25T08:09:08;8.30;99.90
57218;DHT22;43078;52.972;6.482;2023-04-25T08:11:35;8.30;99.90
57218;DHT22;43078;52.972;6.482;2023-04-25T08:14:01;8.30;99.90
57218;DHT22;43078;52.972;6.482;2023-04-25T08:16:27;8.30;99.90
57218;DHT22;43078;52.972;6.482;2023-04-25T08:18:53;8.40;99.90
57218;DHT22;43078;52.972;6.482;2023-04-25T08:21:19;8.40;99.90
57218;DHT22;43078;52.972;6.482;2023-04-25T08:23:45;8.50;99.90
57218;DHT22;43078;52.972;6.482;2023-04-25T08:26:11;8.50;99.90
57218;DHT22;43078;52.972;6.482;2023-04-25T08:28:37;8.60;99.90
57218;DHT22;43078;52.972;6.482;2023-04-25T08:31:02;8.60;99.90
57218;DHT22;43078;52.972;6.482;2023-04-25T08:33:28;8.70;99.90
57218;DHT22;43078;52.972;6.482;2023-04-25T08:35:54;8.70;99.90
57218;DHT22;43078;52.972;6.482;2023-04-25T08:38:20;8.80;99.90
57218;DHT22;43078;52.972;6.482;2023-04-25T08:40:49;8.80;99.90
57218;DHT22;43078;52.972;6.482;2023-04-25T08:43:18;8.90;99.90
57218;DHT22;43078;52.972;6.482;2023-04-25T08:45:44;9.00;99.90
57218;DHT22;43078;52.972;6.482;2023-04-25T08:48:13;9.10;99.80
57218;DHT22;43078;52.972;6.482;2023-04-25T08:50:53;9.10;98.90
57218;DHT22;43078;52.972;6.482;2023-04-25T08:53:25;9.20;99.30
57218;DHT22;43078;52.972;6.482;2023-04-25T08:55:53;9.30;99.40
57218;DHT22;43078;52.972;6.482;2023-04-25T08:58:19;9.40;99.90
57218;DHT22;43078;52.972;6.482;2023-04-25T09:00:50;9.40;99.70
57218;DHT22;43078;52.972;6.482;2023-04-25T09:03:16;9.40;99.40
57218;DHT22;43078;52.972;6.482;2023-04-25T09:05:42;9.30;99.40
57218;DHT22;43078;52.972;6.482;2023-04-25T09:08:08;9.30;99.50
57218;DHT22;43078;52.972;6.482;2023-04-25T09:10:34;9.20;98.70
57218;DHT22;43078;52.972;6.482;2023-04-25T09:13:07;9.00;99.60
57218;DHT22;43078;52.972;6.482;2023-04-25T09:15:53;9.00;99.90
57218;DHT22;43078;52.972;6.482;2023-04-25T09:18:30;9.00;99.90
57218;DHT22;43078;52.972;6.482;2023-04-25T09:21:07;9.00;99.90
57218;DHT22;43078;52.972;6.482;2023-04-25T09:23:49;9.10;99.90
57218;DHT22;43078;52.972;6.482;2023-04-25T09:26:19;9.10;99.90
57218;DHT22;43078;52.972;6.482;2023-04-25T09:28:45;9.20;99.90
57218;DHT22;43078;52.972;6.482;2023-04-25T09:31:22;9.30;99.90
57218;DHT22;43078;52.972;6.482;2023-04-25T09:33:48;9.30;99.90
57218;DHT22;43078;52.972;6.482;2023-04-25T09:36:14;9.40;99.90
57218;DHT22;43078;52.972;6.482;2023-04-25T09:38:45;9.40;99.90
57218;DHT22;43078;52.972;6.482;2023-04-25T09:41:11;9.50;99.90
57218;DHT22;43078;52.972;6.482;2023-04-25T09:43:38;9.60;99.90
57218;DHT22;43078;52.972;6.482;2023-04-25T09:46:10;9.70;99.90
57218;DHT22;43078;52.972;6.482;2023-04-25T09:48:37;9.70;99.90
57218;DHT22;43078;52.972;6.482;2023-04-25T09:51:15;9.80;99.90
57218;DHT22;43078;52.972;6.482;2023-04-25T09:53:42;9.80;99.90
57218;DHT22;43078;52.972;6.482;2023-04-25T09:56:09;9.80;99.90
57218;DHT22;43078;52.972;6.482;2023-04-25T09:58:37;9.90;99.80
57218;DHT22;43078;52.972;6.482;2023-04-25T10:01:05;10.00;99.60
57218;DHT22;43078;52.972;6.482;2023-04-25T10:03:33;10.00;99.80
57218;DHT22;43078;52.972;6.482;2023-04-25T10:06:03;10.00;99.50
57218;DHT22;43078;52.972;6.482;2023-04-25T10:08:33;10.10;99.50
57218;DHT22;43078;52.972;6.482;2023-04-25T10:11:06;10.20;99.50
57218;DHT22;43078;52.972;6.482;2023-04-25T10:13:34;10.20;99.20
57218;DHT22;43078;52.972;6.482;2023-04-25T10:16:02;10.20;99.20
57218;DHT22;43078;52.972;6.482;2023-04-25T10:18:29;10.20;99.00
57218;DHT22;43078;52.972;6.482;2023-04-25T10:21:01;10.30;99.30
57218;DHT22;43078;52.972;6.482;2023-04-25T10:23:27;10.30;99.10
57218;DHT22;43078;52.972;6.482;2023-04-25T10:25:55;10.30;98.80
57218;DHT22;43078;52.972;6.482;2023-04-25T10:28:21;10.30;98.90
57218;DHT22;43078;52.972;6.482;2023-04-25T10:31:03;10.30;98.50
57218;DHT22;43078;52.972;6.482;2023-04-25T10:33:38;10.40;99.20
57218;DHT22;43078;52.972;6.482;2023-04-25T10:36:17;10.40;98.40
57218;DHT22;43078;52.972;6.482;2023-04-25T10:38:44;10.40;97.20
57218;DHT22;43078;52.972;6.482;2023-04-25T10:41:11;10.40;97.20
57218;DHT22;43078;52.972;6.482;2023-04-25T10:43:45;10.40;96.70
57218;DHT22;43078;52.972;6.482;2023-04-25T10:46:24;10.50;97.20
57218;DHT22;43078;52.972;6.482;2023-04-25T10:51:22;10.60;96.70
57218;DHT22;43078;52.972;6.482;2023-04-25T10:56:29;10.60;95.50
57218;DHT22;43078;52.972;6.482;2023-04-25T10:59:15;10.60;96.10
57218;DHT22;43078;52.972;6.482;2023-04-25T11:01:43;10.50;95.00
57218;DHT22;43078;52.972;6.482;2023-04-25T11:04:29;10.50;96.80
57218;DHT22;43078;52.972;6.482;2023-04-25T11:09:36;10.50;98.30
57218;DHT22;43078;52.972;6.482;2023-04-25T11:12:03;10.50;98.40
57218;DHT22;43078;52.972;6.482;2023-04-25T11:14:29;10.50;98.40
57218;DHT22;43078;52.972;6.482;2023-04-25T11:16:56;10.50;97.60
57218;DHT22;43078;52.972;6.482;2023-04-25T11:19:22;10.40;97.40
57218;DHT22;43078;52.972;6.482;2023-04-25T11:21:48;10.30;97.20
57218;DHT22;43078;52.972;6.482;2023-04-25T11:24:15;10.30;96.90
57218;DHT22;43078;52.972;6.482;2023-04-25T11:26:42;10.20;97.40
57218;DHT22;43078;52.972;6.482;2023-04-25T11:29:08;10.20;98.00
57218;DHT22;43078;52.972;6.482;2023-04-25T11:31:34;10.30;98.60
57218;DHT22;43078;52.972;6.482;2023-04-25T11:33:59;10.30;98.70
57218;DHT22;43078;52.972;6.482;2023-04-25T11:36:27;10.30;98.80
57218;DHT22;43078;52.972;6.482;2023-04-25T11:38:53;10.40;98.40
57218;DHT22;43078;52.972;6.482;2023-04-25T11:41:22;10.40;98.40
57218;DHT22;43078;52.972;6.482;2023-04-25T11:43:48;10.50;97.90
57218;DHT22;43078;52.972;6.482;2023-04-25T11:46:15;10.60;98.10
57218;DHT22;43078;52.972;6.482;2023-04-25T11:48:42;10.60;98.00
57218;DHT22;43078;52.972;6.482;2023-04-25T11:51:08;10.60;97.20
57218;DHT22;43078;52.972;6.482;2023-04-25T11:53:34;10.60;97.30
57218;DHT22;43078;52.972;6.482;2023-04-25T11:56:00;10.60;96.90
57218;DHT22;43078;52.972;6.482;2023-04-25T11:58:26;10.60;96.70
57218;DHT22;43078;52.972;6.482;2023-04-25T12:00:52;10.60;97.30
57218;DHT22;43078;52.972;6.482;2023-04-25T12:03:19;10.60;96.60
57218;DHT22;43078;52.972;6.482;2023-04-25T12:05:45;10.60;96.20
57218;DHT22;43078;52.972;6.482;2023-04-25T12:08:15;10.60;96.20
57218;DHT22;43078;52.972;6.482;2023-04-25T12:10:43;10.50;96.40
57218;DHT22;43078;52.972;6.482;2023-04-25T12:13:22;10.50;96.50
57218;DHT22;43078;52.972;6.482;2023-04-25T12:15:48;10.50;96.90
57218;DHT22;43078;52.972;6.482;2023-04-25T12:18:14;10.50;96.90
57218;DHT22;43078;52.972;6.482;2023-04-25T12:20:39;10.60;97.20
57218;DHT22;43078;52.972;6.482;2023-04-25T12:23:07;10.60;96.90
57218;DHT22;43078;52.972;6.482;2023-04-25T12:25:41;10.50;96.50
57218;DHT22;43078;52.972;6.482;2023-04-25T12:28:20;10.50;96.10
57218;DHT22;43078;52.972;6.482;2023-04-25T12:30:56;10.40;97.00
57218;DHT22;43078;52.972;6.482;2023-04-25T12:33:27;10.40;97.40
57218;DHT22;43078;52.972;6.482;2023-04-25T12:35:53;10.40;98.10
57218;DHT22;43078;52.972;6.482;2023-04-25T12:38:26;10.40;98.60
57218;DHT22;43078;52.972;6.482;2023-04-25T12:40:53;10.40;97.70
57218;DHT22;43078;52.972;6.482;2023-04-25T12:43:19;10.40;97.30
57218;DHT22;43078;52.972;6.482;2023-04-25T12:45:48;10.40;97.50
57218;DHT22;43078;52.972;6.482;2023-04-25T12:48:15;10.40;97.10
57218;DHT22;43078;52.972;6.482;2023-04-25T12:50:40;10.50;97.80
57218;DHT22;43078;52.972;6.482;2023-04-25T12:53:06;10.50;98.00
57218;DHT22;43078;52.972;6.482;2023-04-25T12:55:32;10.60;97.60
57218;DHT22;43078;52.972;6.482;2023-04-25T12:57:57;10.60;97.30
57218;DHT22;43078;52.972;6.482;2023-04-25T13:00:23;10.70;97.80
57218;DHT22;43078;52.972;6.482;2023-04-25T13:02:49;10.70;97.10
57218;DHT22;43078;52.972;6.482;2023-04-25T13:05:14;10.70;97.30
57218;DHT22;43078;52.972;6.482;2023-04-25T13:07:40;10.70;96.00
57218;DHT22;43078;52.972;6.482;2023-04-25T13:10:07;10.70;95.50
57218;DHT22;43078;52.972;6.482;2023-04-25T13:12:33;10.70;95.50
57218;DHT22;43078;52.972;6.482;2023-04-25T13:14:58;10.80;96.00
57218;DHT22;43078;52.972;6.482;2023-04-25T13:17:24;10.80;96.40
57218;DHT22;43078;52.972;6.482;2023-04-25T13:19:50;10.90;96.20
57218;DHT22;43078;52.972;6.482;2023-04-25T13:22:16;10.90;96.50
57218;DHT22;43078;52.972;6.482;2023-04-25T13:24:42;10.90;96.10
57218;DHT22;43078;52.972;6.482;2023-04-25T13:27:08;10.90;95.30
57218;DHT22;43078;52.972;6.482;2023-04-25T13:29:34;10.80;94.80
57218;DHT22;43078;52.972;6.482;2023-04-25T13:32:01;10.70;94.40
57218;DHT22;43078;52.972;6.482;2023-04-25T13:34:28;10.60;95.40
57218;DHT22;43078;52.972;6.482;2023-04-25T13:36:54;10.60;95.10
57218;DHT22;43078;52.972;6.482;2023-04-25T13:39:20;10.50;94.80
57218;DHT22;43078;52.972;6.482;2023-04-25T13:41:45;10.50;94.70
57218;DHT22;43078;52.972;6.482;2023-04-25T13:44:11;10.50;95.20
57218;DHT22;43078;52.972;6.482;2023-04-25T13:46:37;10.60;95.00
57218;DHT22;43078;52.972;6.482;2023-04-25T13:49:03;10.60;94.80
57218;DHT22;43078;52.972;6.482;2023-04-25T13:51:29;10.60;94.40
57218;DHT22;43078;52.972;6.482;2023-04-25T13:53:56;10.60;94.70
57218;DHT22;43078;52.972;6.482;2023-04-25T13:56:22;10.60;94.60
57218;DHT22;43078;52.972;6.482;2023-04-25T13:58:49;10.60;94.70
57218;DHT22;43078;52.972;6.482;2023-04-25T14:01:15;10.60;94.00
57218;DHT22;43078;52.972;6.482;2023-04-25T14:03:41;10.60;93.50
57218;DHT22;43078;52.972;6.482;2023-04-25T14:06:07;10.60;94.10
57218;DHT22;43078;52.972;6.482;2023-04-25T14:08:34;10.50;94.50
57218;DHT22;43078;52.972;6.482;2023-04-25T14:10:59;10.50;95.10
57218;DHT22;43078;52.972;6.482;2023-04-25T14:13:26;10.50;95.00
57218;DHT22;43078;52.972;6.482;2023-04-25T14:15:52;10.40;95.20
57218;DHT22;43078;52.972;6.482;2023-04-25T14:18:18;10.40;94.80
57218;DHT22;43078;52.972;6.482;2023-04-25T14:20:44;10.50;94.70
57218;DHT22;43078;52.972;6.482;2023-04-25T14:23:10;10.50;95.00
57218;DHT22;43078;52.972;6.482;2023-04-25T14:25:36;10.50;95.30
57218;DHT22;43078;52.972;6.482;2023-04-25T14:28:02;10.60;95.40
57218;DHT22;43078;52.972;6.482;2023-04-25T14:30:28;10.60;95.60
57218;DHT22;43078;52.972;6.482;2023-04-25T14:32:54;10.60;95.30
57218;DHT22;43078;52.972;6.482;2023-04-25T14:35:19;10.70;94.60
57218;DHT22;43078;52.972;6.482;2023-04-25T14:37:45;10.70;94.00
57218;DHT22;43078;52.972;6.482;2023-04-25T14:40:11;10.80;94.20
57218;DHT22;43078;52.972;6.482;2023-04-25T14:42:39;10.80;94.20
57218;DHT22;43078;52.972;6.482;2023-04-25T14:45:06;10.90;94.10
57218;DHT22;43078;52.972;6.482;2023-04-25T14:47:32;10.90;93.60
57218;DHT22;43078;52.972;6.482;2023-04-25T14:49:58;10.90;93.90
57218;DHT22;43078;52.972;6.482;2023-04-25T14:52:27;10.90;93.10
57218;DHT22;43078;52.972;6.482;2023-04-25T14:54:53;10.90;93.80
57218;DHT22;43078;52.972;6.482;2023-04-25T14:57:18;11.00;93.50
57218;DHT22;43078;52.972;6.482;2023-04-25T14:59:44;11.00;93.20
57218;DHT22;43078;52.972;6.482;2023-04-25T15:02:11;11.10;93.10
57218;DHT22;43078;52.972;6.482;2023-04-25T15:04:36;11.10;93.30
57218;DHT22;43078;52.972;6.482;2023-04-25T15:07:02;11.10;93.50
57218;DHT22;43078;52.972;6.482;2023-04-25T15:09:30;11.10;92.60
57218;DHT22;43078;52.972;6.482;2023-04-25T15:11:57;11.20;93.10
57218;DHT22;43078;52.972;6.482;2023-04-25T15:14:23;11.20;94.10
57218;DHT22;43078;52.972;6.482;2023-04-25T15:16:48;11.30;94.10
57218;DHT22;43078;52.972;6.482;2023-04-25T15:19:14;11.30;94.30
57218;DHT22;43078;52.972;6.482;2023-04-25T15:21:40;11.40;93.90
57218;DHT22;43078;52.972;6.482;2023-04-25T15:24:06;11.40;94.40
57218;DHT22;43078;52.972;6.482;2023-04-25T15:26:31;11.40;94.80
57218;DHT22;43078;52.972;6.482;2023-04-25T15:28:57;11.40;94.50
57218;DHT22;43078;52.972;6.482;2023-04-25T15:31:23;11.40;94.30
57218;DHT22;43078;52.972;6.482;2023-04-25T15:33:48;11.50;94.50
57218;DHT22;43078;52.972;6.482;2023-04-25T15:36:14;11.40;93.90
57218;DHT22;43078;52.972;6.482;2023-04-25T15:38:41;11.40;94.40
57218;DHT22;43078;52.972;6.482;2023-04-25T15:41:07;11.30;94.30
57218;DHT22;43078;52.972;6.482;2023-04-25T15:43:32;11.30;95.60
57218;DHT22;43078;52.972;6.482;2023-04-25T15:46:02;11.30;95.80